Time;durP1;ratioP1;P1;durP2;ratioP2;P2;SDS_P1;SDS_P2;PMS_P1;PMS_P2;Temp;Humidity;BMP_temperature;BMP_pressure;BME280_temperature;BME280_humidity;BME280_pressure;Samples;Min_cycle;Max_cycle;Signal;HPM_P1;HPM_P2
2022/03/22 00:00:31;;;;;;;23.48;11.80;;;;;;;5.69;48.67;97892.69;4994277;28;20049;-67
2022/03/22 00:02:57;;;;;;;24.55;10.52;;;;;;;5.59;49.41;97899.19;4996095;28;20038;-66
2022/03/22 00:05:23;;;;;;;17.88;10.80;;;;;;;5.47;51.12;97893.44;4989954;28;21008;-65
2022/03/22 00:07:49;;;;;;;25.42;11.30;;;;;;;5.44;51.40;97894.03;4997590;28;20717;-67
2022/03/22 00:10:14;;;;;;;19.80;10.73;;;;;;;5.27;51.78;97891.97;4993910;28;20034;-66
2022/03/22 00:12:41;;;;;;;17.48;10.80;;;;;;;5.21;52.61;97896.69;5004877;28;20077;-65
2022/03/22 00:15:08;;;;;;;23.00;10.90;;;;;;;5.13;53.25;97900.94;5018897;28;20038;-62
2022/03/22 00:17:34;;;;;;;21.92;11.23;;;;;;;4.94;53.26;97898.28;5012390;28;20413;-66
2022/03/22 00:19:59;;;;;;;22.55;10.85;;;;;;;4.83;53.93;97899.59;5003607;28;20078;-67
2022/03/22 00:22:25;;;;;;;22.42;11.15;;;;;;;4.67;54.10;97900.97;4996791;28;20037;-64
2022/03/22 00:24:51;;;;;;;23.95;10.77;;;;;;;4.48;53.93;97895.59;5003736;28;20053;-67
2022/03/22 00:27:16;;;;;;;20.83;9.95;;;;;;;4.44;54.43;97897.28;4996555;28;20223;-67
2022/03/22 00:29:42;;;;;;;27.33;13.82;;;;;;;4.44;54.48;97892.66;5003078;28;20041;-66
2022/03/22 00:32:08;;;;;;;31.65;13.25;;;;;;;4.42;54.07;97900.28;4997686;28;20061;-65
2022/03/22 00:34:41;;;;;;;24.80;12.52;;;;;;;4.38;54.06;97897.38;5001994;28;20105;-63
2022/03/22 00:37:07;;;;;;;25.45;11.05;;;;;;;4.36;55.55;97894.16;4998241;28;20065;-67
2022/03/22 00:39:33;;;;;;;23.35;11.50;;;;;;;4.31;55.69;97894.22;4998540;28;20041;-67
2022/03/22 00:41:58;;;;;;;20.45;10.38;;;;;;;4.03;56.44;97898.72;5035326;28;20054;-64
2022/03/22 00:44:23;;;;;;;19.17;10.25;;;;;;;3.87;57.91;97894.63;5010344;28;20527;-63
2022/03/22 00:46:50;;;;;;;26.60;11.13;;;;;;;3.65;60.01;97901.44;5000347;28;20076;-64
2022/03/22 00:49:15;;;;;;;21.50;10.70;;;;;;;3.43;60.49;97899.31;4996252;28;20046;-64
2022/03/22 00:51:41;;;;;;;24.73;11.65;;;;;;;3.27;61.24;97895.19;5000670;28;20100;-67
2022/03/22 00:54:08;;;;;;;22.25;10.60;;;;;;;3.08;62.08;97895.13;4996732;28;20038;-65
2022/03/22 00:56:34;;;;;;;19.08;10.45;;;;;;;3.00;61.24;97891.16;4998281;28;20537;-66
2022/03/22 01:01:43;;;;;;;25.05;11.90;;;;;;;2.73;63.22;97902.53;4999570;28;20057;-62
2022/03/22 01:04:09;;;;;;;23.38;12.02;;;;;;;2.79;63.53;97901.38;4998467;28;20403;-63
2022/03/22 01:06:35;;;;;;;21.85;11.27;;;;;;;2.72;63.58;97899.03;5002488;28;20042;-66
2022/03/22 01:09:00;;;;;;;20.40;11.43;;;;;;;2.53;63.87;97898.94;4997250;28;20042;-64
2022/03/22 01:11:26;;;;;;;23.20;12.18;;;;;;;2.24;65.70;97897.00;4997977;28;20068;-65
2022/03/22 01:13:51;;;;;;;20.98;11.57;;;;;;;2.12;66.75;97898.47;5004119;28;20166;-66
2022/03/22 01:16:17;;;;;;;19.70;11.80;;;;;;;2.20;66.66;97897.88;5011754;28;20048;-63
2022/03/22 01:18:42;;;;;;;20.67;11.70;;;;;;;2.32;66.87;97900.19;5006288;28;20078;-66
2022/03/22 01:21:08;;;;;;;24.60;12.75;;;;;;;2.44;66.52;97897.94;4996287;28;20041;-65
2022/03/22 01:23:33;;;;;;;22.10;11.57;;;;;;;2.58;65.81;97893.47;5001372;28;20136;-63
2022/03/22 01:25:59;;;;;;;20.98;11.90;;;;;;;2.63;65.31;97898.03;5001372;28;20580;-66
2022/03/22 01:28:26;;;;;;;22.75;12.18;;;;;;;2.65;65.32;97895.84;4997981;28;20252;-65
2022/03/22 01:30:52;;;;;;;31.08;15.95;;;;;;;2.28;66.25;97899.97;5006509;28;20092;-66
2022/03/22 01:33:18;;;;;;;23.08;13.23;;;;;;;2.05;67.03;97896.91;5006561;28;20046;-67
2022/03/22 01:35:43;;;;;;;22.75;11.93;;;;;;;2.00;67.71;97902.34;4997196;28;20692;-66
2022/03/22 01:38:09;;;;;;;29.13;12.35;;;;;;;1.91;67.05;97898.63;5002470;28;20495;-65
2022/03/22 01:40:37;;;;;;;23.83;13.02;;;;;;;1.76;68.57;97902.22;5004900;28;20046;-66
2022/03/22 01:43:03;;;;;;;25.67;13.50;;;;;;;1.85;69.14;97905.13;5003773;28;20514;-62
2022/03/22 01:45:29;;;;;;;19.75;11.95;;;;;;;1.89;68.74;97898.06;5003422;28;20367;-66
2022/03/22 01:47:58;;;;;;;23.45;13.00;;;;;;;1.72;68.58;97903.88;5009968;28;20057;-64
2022/03/22 01:50:24;;;;;;;25.40;12.77;;;;;;;1.58;68.45;97906.38;5004580;28;20121;-66
2022/03/22 01:52:49;;;;;;;25.80;13.10;;;;;;;1.50;69.81;97902.38;5017475;28;20073;-67
2022/03/22 01:55:19;;;;;;;21.73;12.15;;;;;;;1.44;70.52;97902.66;5018546;28;20041;-64
2022/03/22 01:57:46;;;;;;;25.02;12.82;;;;;;;1.44;70.50;97902.66;5025896;28;20022;-68
2022/03/22 02:00:15;;;;;;;21.80;12.10;;;;;;;1.55;71.41;97901.53;5017353;28;20046;-63
2022/03/22 02:08:13;;;;;;;28.30;13.05;;;;;;;1.37;70.74;97908.38;4994928;28;20593;-65
2022/03/22 02:10:39;;;;;;;25.20;12.35;;;;;;;1.36;72.23;97904.06;5004065;28;20111;-66
2022/03/22 02:13:05;;;;;;;21.17;12.18;;;;;;;1.28;71.58;97912.75;5002404;28;20041;-62
2022/03/22 02:15:31;;;;;;;26.27;12.30;;;;;;;1.29;72.36;97904.34;5006137;28;20050;-64
2022/03/22 02:17:57;;;;;;;22.15;12.45;;;;;;;1.11;72.96;97905.75;5001004;28;20074;-66
2022/03/22 02:20:22;;;;;;;21.55;12.48;;;;;;;1.07;73.42;97912.00;4995635;28;20767;-66
2022/03/22 02:23:18;;;;;;;24.90;13.35;;;;;;;0.94;72.91;97906.09;5000986;28;20050;-65
2022/03/22 02:25:43;;;;;;;26.25;13.05;;;;;;;0.96;74.22;97903.13;5001477;28;20132;-65
2022/03/22 02:28:11;;;;;;;26.48;12.85;;;;;;;0.78;72.91;97906.44;4991190;28;20125;-66
2022/03/22 02:30:37;;;;;;;24.65;13.88;;;;;;;0.54;75.96;97902.41;5002419;28;20049;-65
2022/03/22 02:33:03;;;;;;;25.25;12.25;;;;;;;0.52;76.04;97904.56;4997017;28;20050;-64
2022/03/22 02:35:30;;;;;;;27.83;12.98;;;;;;;0.64;76.80;97901.56;4997600;28;20046;-64
2022/03/22 02:37:56;;;;;;;24.67;12.63;;;;;;;0.73;75.96;97899.94;5001948;28;20037;-65
2022/03/22 02:40:22;;;;;;;25.20;12.90;;;;;;;0.64;75.67;97901.56;4995707;28;20463;-66
2022/03/22 02:42:49;;;;;;;22.30;12.02;;;;;;;0.10;78.68;97907.56;4998234;28;20066;-65
2022/03/22 02:45:15;;;;;;;30.17;14.27;;;;;;;-0.27;81.53;97917.47;4995893;28;20046;-64
2022/03/22 02:47:42;;;;;;;22.50;12.18;;;;;;;-0.27;82.46;97911.25;5001111;28;20446;-64
2022/03/22 02:50:09;;;;;;;23.83;12.52;;;;;;;-0.08;80.38;97909.69;4996843;28;20042;-64
2022/03/22 02:52:35;;;;;;;24.63;12.70;;;;;;;-0.06;79.07;97906.72;5001837;28;20119;-64
2022/03/22 02:55:03;;;;;;;24.73;13.13;;;;;;;-0.03;79.53;97916.97;4999148;28;20077;-64
2022/03/22 02:57:28;;;;;;;25.00;12.30;;;;;;;0.21;80.30;97911.84;4991573;28;20104;-66
2022/03/22 02:59:54;;;;;;;28.85;12.18;;;;;;;0.02;79.89;97921.53;5001579;28;20759;-66
2022/03/22 03:02:19;;;;;;;26.65;12.98;;;;;;;-0.28;83.74;97923.13;4996727;28;20057;-64
2022/03/22 03:04:45;;;;;;;29.75;13.93;;;;;;;-0.49;86.58;97922.25;5014733;28;20122;-65
2022/03/22 03:07:10;;;;;;;24.33;13.10;;;;;;;-0.27;86.76;97913.94;4990989;28;20047;-64
2022/03/22 03:09:36;;;;;;;27.10;13.68;;;;;;;-0.07;86.14;97918.59;4981902;28;20038;-65
2022/03/22 03:12:01;;;;;;;27.80;13.10;;;;;;;0.13;84.55;97928.56;5001708;28;20483;-67
2022/03/22 03:14:39;;;;;;;23.20;12.75;;;;;;;0.19;83.08;97922.09;4994140;28;20080;-66
2022/03/22 03:17:13;;;;;;;29.02;13.73;;;;;;;-0.10;81.95;97924.50;4996403;28;20085;-65
2022/03/22 03:19:39;;;;;;;24.10;13.02;;;;;;;-0.12;83.74;97924.75;5000905;28;20491;-64
2022/03/22 03:22:05;;;;;;;26.35;14.05;;;;;;;-0.22;81.72;97919.34;4993415;28;20120;-60
2022/03/22 03:24:31;;;;;;;28.67;13.27;;;;;;;-0.35;80.41;97922.56;5002025;28;20050;-63
2022/03/22 03:26:57;;;;;;;27.65;13.88;;;;;;;-0.60;85.46;97919.53;5022860;28;20046;-61
2022/03/22 03:29:23;;;;;;;25.77;12.73;;;;;;;-0.76;87.68;97923.22;4998413;28;20057;-65
2022/03/22 03:31:48;;;;;;;25.98;13.82;;;;;;;-0.88;88.42;97920.78;4999810;28;20045;-66
2022/03/22 03:34:14;;;;;;;24.73;13.63;;;;;;;-0.65;89.49;97929.47;4995381;28;20075;-65
2022/03/22 03:36:40;;;;;;;25.48;14.00;;;;;;;-0.67;88.49;97923.53;4998859;28;20621;-68
2022/03/22 03:39:05;;;;;;;27.15;14.43;;;;;;;-0.53;88.37;97926.56;4989357;28;20049;-65
2022/03/22 03:47:11;;;;;;;26.98;12.90;;;;;;;-0.21;84.16;97937.13;4997420;28;20048;-67
2022/03/22 03:49:37;;;;;;;21.15;12.32;;;;;;;-0.31;84.67;97934.41;4998161;28;20502;-65
2022/03/22 03:52:08;;;;;;;26.23;13.68;;;;;;;-0.33;84.82;97931.97;4997887;28;20042;-63
2022/03/22 03:54:34;;;;;;;24.35;13.48;;;;;;;-0.44;83.45;97935.72;5009754;28;20045;-64
2022/03/22 03:57:00;;;;;;;26.13;13.52;;;;;;;-0.36;84.56;97935.22;5019428;28;20030;-66
2022/03/22 03:59:26;;;;;;;26.80;13.02;;;;;;;-0.30;84.24;97934.16;4998932;28;20053;-64
2022/03/22 04:01:51;;;;;;;28.92;14.40;;;;;;;-0.33;83.88;97937.38;4999852;28;20057;-64
2022/03/22 04:04:16;;;;;;;25.00;13.45;;;;;;;-0.48;81.85;97940.84;4994758;28;20421;-64
2022/03/22 04:06:42;;;;;;;34.25;16.73;;;;;;;-0.86;83.92;97937.47;4999955;28;20406;-66
2022/03/22 04:09:07;;;;;;;32.70;16.80;;;;;;;-1.44;90.22;97936.56;4994883;28;20569;-65
2022/03/22 04:11:33;;;;;;;31.58;15.40;;;;;;;-1.85;95.69;97944.34;4999812;28;20529;-65
2022/03/22 04:13:58;;;;;;;28.55;14.63;;;;;;;-1.87;96.37;97935.69;5001908;28;20131;-65
2022/03/22 04:16:24;;;;;;;26.40;13.23;;;;;;;-1.70;96.97;97944.44;4995116;28;20516;-65
2022/03/22 04:18:50;;;;;;;30.27;14.57;;;;;;;-1.43;96.37;97936.31;5000955;28;20049;-66
2022/03/22 04:21:16;;;;;;;36.50;14.15;;;;;;;-1.24;95.37;97941.25;4998890;28;20050;-63
2022/03/22 04:23:41;;;;;;;31.27;15.18;;;;;;;-1.16;94.51;97949.66;5026673;23;20060;-65
2022/03/22 04:26:07;;;;;;;27.27;13.70;;;;;;;-1.05;93.49;97949.72;4993878;28;20490;-65
2022/03/22 04:34:01;;;;;;;28.08;14.45;;;;;;;-1.49;93.56;97958.06;4999192;28;20046;-65
2022/03/22 04:36:28;;;;;;;29.60;14.85;;;;;;;-1.52;94.08;97954.00;4992293;28;20069;-64
2022/03/22 04:38:54;;;;;;;28.20;14.38;;;;;;;-1.33;94.82;97946.34;4996753;28;20042;-65
2022/03/22 04:41:20;;;;;;;31.00;15.70;;;;;;;-1.06;94.02;97958.84;4993765;28;20053;-64
2022/03/22 04:43:46;;;;;;;27.05;14.77;;;;;;;-0.96;92.94;97959.72;4998489;28;20050;-65
2022/03/22 04:46:11;;;;;;;24.38;13.93;;;;;;;-0.85;91.69;97955.19;4992367;28;20077;-65
2022/03/22 04:48:36;;;;;;;29.70;14.65;;;;;;;-0.86;91.00;97963.56;4996758;28;20478;-64
2022/03/22 04:56:46;;;;;;;27.10;14.63;;;;;;;-1.67;94.92;97964.63;4998604;28;20052;-64
2022/03/22 04:59:24;;;;;;;26.40;13.82;;;;;;;-1.52;95.67;97967.41;4991609;28;20053;-64
2022/03/22 05:01:51;;;;;;;28.63;14.55;;;;;;;-1.42;94.59;97967.50;5001295;28;20049;-64
2022/03/22 05:04:17;;;;;;;27.42;13.85;;;;;;;-1.51;92.61;97973.59;4995931;28;20072;-65
2022/03/22 05:06:42;;;;;;;29.52;14.98;;;;;;;-1.54;93.03;97970.38;5002401;28;20045;-66
2022/03/22 05:09:10;;;;;;;29.55;14.57;;;;;;;-1.58;92.19;97977.31;4997929;28;20669;-66
2022/03/22 05:11:36;;;;;;;31.45;15.50;;;;;;;-1.66;91.79;97985.84;5002603;28;20143;-65
2022/03/22 05:14:02;;;;;;;27.90;14.13;;;;;;;-1.63;92.23;97984.53;5000937;28;20077;-67
2022/03/22 05:16:29;;;;;;;28.33;13.57;;;;;;;-1.58;93.48;97989.97;4996929;28;20134;-65
2022/03/22 05:18:55;;;;;;;30.65;14.38;;;;;;;-1.42;93.10;97988.22;5001537;28;20037;-65
2022/03/22 05:21:21;;;;;;;33.55;14.95;;;;;;;-1.25;92.49;97994.22;4994613;28;20046;-65
2022/03/22 05:23:46;;;;;;;33.15;15.30;;;;;;;-1.10;91.46;97995.41;5003007;28;20439;-66
2022/03/22 05:26:13;;;;;;;27.80;15.32;;;;;;;-1.48;91.38;97994.59;4992525;28;20073;-61
2022/03/22 05:28:40;;;;;;;34.72;16.33;;;;;;;-1.66;92.16;98001.97;5003749;28;20049;-66
2022/03/22 05:31:06;;;;;;;28.80;15.23;;;;;;;-1.78;92.16;98006.72;5001657;28;20108;-64
2022/03/22 05:33:31;;;;;;;28.17;15.07;;;;;;;-1.73;93.13;98007.56;5007237;28;20053;-66
2022/03/22 05:35:57;;;;;;;31.05;15.98;;;;;;;-1.36;93.93;98003.28;5004742;28;20033;-66
2022/03/22 05:38:26;;;;;;;28.25;14.27;;;;;;;-0.77;92.21;97986.19;4997045;28;20621;-65
2022/03/22 05:40:52;;;;;;;29.23;15.05;;;;;;;-0.04;88.28;97996.16;4998134;28;20041;-65
2022/03/22 05:43:18;;;;;;;27.67;14.20;;;;;;;0.64;84.00;97998.66;4991815;28;20046;-65
2022/03/22 05:45:48;;;;;;;30.95;14.23;;;;;;;0.85;82.10;98004.03;4996133;28;20042;-64
2022/03/22 05:48:21;;;;;;;27.95;14.05;;;;;;;1.61;78.06;97999.53;5002195;28;20049;-65
2022/03/22 05:50:46;;;;;;;25.15;13.48;;;;;;;2.35;72.80;97997.78;5001766;28;20040;-65
2022/03/22 05:53:12;;;;;;;25.50;13.25;;;;;;;3.15;68.94;98001.16;4997213;28;20038;-65
2022/03/22 05:55:39;;;;;;;26.83;13.45;;;;;;;3.78;66.40;98000.19;5001672;28;20053;-66
2022/03/22 05:58:05;;;;;;;21.50;12.57;;;;;;;4.43;63.22;98005.00;4997091;28;20061;-65
2022/03/22 06:00:31;;;;;;;21.05;11.30;;;;;;;5.02;61.71;97996.44;4999292;28;20676;-67
2022/03/22 06:02:57;;;;;;;21.50;13.00;;;;;;;5.43;57.91;98003.84;4996483;28;20129;-64
2022/03/22 06:05:22;;;;;;;27.95;14.05;;;;;;;6.17;54.68;98009.16;4991482;28;20050;-65
2022/03/22 06:07:48;;;;;;;22.65;12.52;;;;;;;6.77;52.72;97996.38;5001880;28;20053;-64
2022/03/22 06:10:14;;;;;;;23.45;12.15;;;;;;;7.19;51.03;98002.41;5003164;28;20568;-64
2022/03/22 06:12:46;;;;;;;20.17;11.57;;;;;;;7.47;49.66;97992.94;5009475;28;20049;-64
2022/03/22 06:15:15;;;;;;;24.13;12.10;;;;;;;7.81;49.01;98001.53;4999319;28;20057;-64
2022/03/22 06:17:51;;;;;;;24.60;11.47;;;;;;;7.68;46.06;98008.72;4998466;28;20049;-65
2022/03/22 06:20:19;;;;;;;25.65;12.55;;;;;;;6.65;51.19;98007.81;4993740;28;20141;-65
2022/03/22 06:22:48;;;;;;;21.10;11.90;;;;;;;7.84;48.49;98007.16;4999331;28;20048;-64
2022/03/22 06:25:14;;;;;;;21.70;11.32;;;;;;;7.36;49.49;98009.84;4985524;28;20042;-65
2022/03/22 06:27:41;;;;;;;20.27;11.88;;;;;;;5.20;56.84;98009.16;4999870;28;20061;-65
2022/03/22 06:30:08;;;;;;;22.65;11.73;;;;;;;6.35;53.31;98009.34;4992110;28;20735;-65
2022/03/22 06:32:42;;;;;;;22.35;12.80;;;;;;;6.55;53.19;98006.13;4983364;28;20049;-64
2022/03/22 06:35:10;;;;;;;21.42;12.43;;;;;;;8.59;47.59;98003.63;4993985;28;20104;-65
2022/03/22 06:37:36;;;;;;;23.05;11.70;;;;;;;9.88;44.68;98000.84;5001423;28;20038;-64
2022/03/22 06:40:03;;;;;;;19.63;12.35;;;;;;;9.34;44.80;98006.06;4999355;28;20046;-65
2022/03/22 06:42:29;;;;;;;23.65;12.60;;;;;;;8.64;44.69;98013.56;4981164;28;20129;-65
2022/03/22 06:44:54;;;;;;;26.75;12.43;;;;;;;9.83;44.37;98003.78;4997117;28;20038;-65
2022/03/22 06:47:20;;;;;;;20.50;12.30;;;;;;;11.17;41.69;97998.59;4988401;28;20133;-65
2022/03/22 06:49:46;;;;;;;20.40;11.68;;;;;;;10.78;41.38;98014.44;5001021;28;20073;-66
2022/03/22 06:52:11;;;;;;;23.85;12.13;;;;;;;10.39;43.00;98011.03;4991364;28;20057;-66
2022/03/22 06:54:38;;;;;;;21.48;12.18;;;;;;;10.08;41.85;98007.50;4997058;28;20638;-65
2022/03/22 06:57:05;;;;;;;21.25;11.40;;;;;;;10.79;40.71;98016.06;4994779;28;20042;-65
2022/03/22 06:59:30;;;;;;;19.27;11.00;;;;;;;10.99;40.49;98020.69;5000696;28;20042;-65
2022/03/22 07:01:55;;;;;;;23.67;11.63;;;;;;;11.65;39.21;98021.78;5000293;28;20053;-65
2022/03/22 07:04:21;;;;;;;21.55;10.98;;;;;;;12.01;39.66;98021.03;4995336;28;20511;-65
2022/03/22 07:06:46;;;;;;;19.58;11.10;;;;;;;13.53;35.00;98021.47;5000865;28;20043;-65
2022/03/22 07:09:12;;;;;;;23.63;12.45;;;;;;;13.24;36.00;98019.09;4995292;28;20056;-64
2022/03/22 07:12:10;;;;;;;22.42;12.15;;;;;;;12.76;35.62;98016.97;5000209;28;20056;-64
2022/03/22 07:14:29;;;;;;;23.95;11.75;;;;;;;13.97;35.00;98017.81;4997632;28;20045;-64
2022/03/22 07:16:55;;;;;;;21.30;11.27;;;;;;;15.22;32.71;98016.97;5003322;28;20362;-64
2022/03/22 07:19:23;;;;;;;19.90;11.55;;;;;;;15.20;32.56;98013.78;5010062;28;20139;-65
2022/03/22 07:21:49;;;;;;;19.35;10.95;;;;;;;14.71;33.63;98020.72;5003837;28;20092;-64
2022/03/22 07:24:18;;;;;;;18.95;11.60;;;;;;;15.93;32.21;98008.38;4996440;28;20069;-65
2022/03/22 07:26:45;;;;;;;20.23;11.80;;;;;;;14.76;33.18;98016.06;4998604;28;20383;-65
2022/03/22 07:29:10;;;;;;;19.73;12.40;;;;;;;14.43;33.83;98004.31;4991025;28;20212;-65
2022/03/22 07:31:39;;;;;;;21.30;13.00;;;;;;;14.49;34.35;98008.38;4997772;28;20137;-67
2022/03/22 07:34:06;;;;;;;22.08;13.45;;;;;;;16.25;31.55;97997.81;4992002;28;20038;-63
2022/03/22 07:36:32;;;;;;;17.27;11.52;;;;;;;14.58;33.83;97999.13;5002715;28;20755;-65
2022/03/22 07:38:58;;;;;;;19.27;11.68;;;;;;;15.43;32.67;97993.69;5012725;28;20435;-65
2022/03/22 07:41:24;;;;;;;22.25;12.00;;;;;;;14.44;33.04;98008.69;4994821;28;20409;-66
2022/03/22 07:43:49;;;;;;;23.15;13.23;;;;;;;13.73;35.73;98007.78;5011249;28;20140;-65
2022/03/22 07:46:14;;;;;;;23.17;12.40;;;;;;;14.66;34.45;98006.41;4995572;28;20065;-65
2022/03/22 07:48:40;;;;;;;20.13;12.82;;;;;;;14.12;36.12;98021.72;5000140;28;20046;-65
2022/03/22 07:53:53;;;;;;;23.33;12.05;;;;;;;16.80;31.53;98015.97;4988595;28;20049;-66
2022/03/22 07:56:19;;;;;;;18.50;11.02;;;;;;;16.84;31.74;98018.81;4988213;28;20042;-66
2022/03/22 07:58:44;;;;;;;23.67;12.10;;;;;;;14.91;34.53;98029.00;4995610;28;20041;-67
2022/03/22 08:01:09;;;;;;;25.85;12.23;;;;;;;16.18;32.54;98027.31;4986766;28;20053;-66
2022/03/22 08:03:35;;;;;;;21.17;12.02;;;;;;;16.25;33.29;98019.94;4999321;28;20139;-66
2022/03/22 08:06:00;;;;;;;25.40;11.82;;;;;;;16.94;32.09;98029.19;5000711;28;20188;-66
2022/03/22 08:08:26;;;;;;;20.38;12.07;;;;;;;17.00;32.84;98027.69;4984930;28;20042;-66
2022/03/22 08:10:51;;;;;;;22.48;12.15;;;;;;;16.24;34.24;98029.41;4999122;28;20041;-66
2022/03/22 08:13:17;;;;;;;21.10;12.05;;;;;;;15.29;35.53;98025.41;4993916;28;20084;-67
2022/03/22 08:15:43;;;;;;;20.58;11.95;;;;;;;13.73;38.43;98027.84;4998795;28;20061;-66
2022/03/22 08:18:09;;;;;;;23.15;12.73;;;;;;;14.82;37.93;98036.66;4994734;28;20049;-66
2022/03/22 08:20:35;;;;;;;22.05;12.93;;;;;;;16.37;35.08;98023.69;4998677;28;20060;-66
2022/03/22 08:23:05;;;;;;;19.75;12.73;;;;;;;13.65;39.64;98028.84;4999969;28;20050;-65
2022/03/22 08:25:30;;;;;;;;;;;;;;;16.12;34.78;98024.09;4998004;28;20049;-66
2022/03/22 08:27:57;;;;;;;21.20;12.40;;;;;;;15.91;34.92;98016.25;4999179;28;19920;-66
2022/03/22 08:30:23;;;;;;;24.08;13.32;;;;;;;13.70;39.17;98025.00;4995036;28;20920;-66
2022/03/22 08:32:50;;;;;;;24.25;13.80;;;;;;;15.68;34.83;98021.75;4997656;28;20052;-65
2022/03/22 08:35:20;;;;;;;24.27;12.73;;;;;;;16.42;33.22;98015.03;4991602;28;20049;-66
2022/03/22 08:37:46;;;;;;;;;;;;;;;16.72;33.62;98019.78;5001028;28;20057;-66
2022/03/22 08:40:14;;;;;;;26.38;12.60;;;;;;;17.50;32.35;98014.41;4984924;28;19914;-65
2022/03/22 08:42:43;;;;;;;18.05;11.88;;;;;;;17.06;30.96;98020.66;4996341;28;20249;-67
2022/03/22 08:45:14;;;;;;;20.75;12.20;;;;;;;16.16;33.09;98018.63;4994112;28;20037;-66
2022/03/22 08:47:40;;;;;;;20.13;12.88;;;;;;;15.98;34.27;98010.03;5002362;28;20069;-65
2022/03/22 08:50:10;;;;;;;19.10;12.75;;;;;;;16.93;33.49;98011.00;4997262;28;20129;-65
2022/03/22 08:52:40;;;;;;;26.45;13.05;;;;;;;15.45;35.84;98025.31;5002538;28;20525;-65
2022/03/22 08:55:07;;;;;;;23.52;12.75;;;;;;;16.61;35.60;98014.13;4996540;28;20049;-64
2022/03/22 08:57:36;;;;;;;20.67;13.57;;;;;;;15.02;38.57;98012.66;5000923;28;20505;-65
2022/03/22 09:00:09;;;;;;;22.30;13.25;;;;;;;15.07;38.19;98004.06;4997803;28;20427;-67
2022/03/22 09:02:38;;;;;;;22.15;14.70;;;;;;;15.64;37.03;98013.41;5002452;28;20054;-64
2022/03/22 09:07:50;;;;;;;18.05;11.95;;;;;;;17.53;33.56;98008.09;5002703;28;20045;-65
2022/03/22 09:10:18;;;;;;;20.70;12.32;;;;;;;17.23;34.94;98013.69;4994420;28;20049;-66
2022/03/22 09:12:44;;;;;;;21.38;13.65;;;;;;;15.62;37.38;98012.19;5001648;28;20033;-64
2022/03/22 09:15:11;;;;;;;23.05;13.73;;;;;;;13.72;40.26;98020.78;4997016;28;20050;-64
2022/03/22 09:17:39;;;;;;;23.55;13.48;;;;;;;14.85;39.24;98017.44;4993693;28;20046;-66
2022/03/22 09:20:05;;;;;;;20.42;12.38;;;;;;;15.63;37.29;98019.31;4998372;28;20068;-64
2022/03/22 09:22:31;;;;;;;27.48;13.70;;;;;;;15.77;36.55;98007.72;5001435;28;20445;-64
2022/03/22 09:24:56;;;;;;;20.25;13.63;;;;;;;16.21;36.09;98001.72;5002141;28;20041;-66
2022/03/22 09:27:23;;;;;;;23.52;13.35;;;;;;;16.60;35.02;98004.22;4996220;28;20073;-66
2022/03/22 09:29:49;;;;;;;22.15;13.45;;;;;;;17.25;34.07;98005.03;5002011;28;20208;-66
2022/03/22 09:32:14;;;;;;;20.42;13.27;;;;;;;18.04;32.61;98003.00;4992736;28;20152;-65
2022/03/22 09:34:40;;;;;;;24.55;14.63;;;;;;;15.10;36.45;97998.63;4992832;28;20045;-64
2022/03/22 09:37:07;;;;;;;24.02;12.23;;;;;;;16.85;34.28;97993.50;4995764;28;20152;-63
2022/03/22 09:39:33;;;;;;;25.67;13.70;;;;;;;17.65;32.83;97995.94;5001283;28;20045;-65
2022/03/22 09:42:00;;;;;;;20.85;13.10;;;;;;;17.54;32.24;98000.59;5000445;28;20088;-66
2022/03/22 09:44:28;;;;;;;25.80;12.95;;;;;;;16.67;33.33;97996.00;4993912;28;20057;-64
2022/03/22 09:46:56;;;;;;;22.48;13.23;;;;;;;18.23;31.63;97990.88;5001446;28;20046;-63
2022/03/22 09:49:21;;;;;;;26.75;13.10;;;;;;;17.96;31.24;97991.06;4996185;28;22855;-65
2022/03/22 09:51:48;;;;;;;20.02;12.60;;;;;;;18.11;31.01;97989.19;5002219;28;20077;-65
2022/03/22 09:54:22;;;;;;;21.00;13.82;;;;;;;19.72;28.36;97982.72;4998485;28;20033;-64
2022/03/22 09:56:49;;;;;;;21.75;13.25;;;;;;;19.33;27.76;97978.69;5002045;28;20069;-65
2022/03/22 09:59:20;;;;;;;19.15;12.88;;;;;;;18.87;27.49;97990.44;4996450;28;20429;-65
2022/03/22 10:01:45;;;;;;;21.75;13.63;;;;;;;18.69;28.64;97982.00;5001545;28;20038;-65
2022/03/22 10:04:14;;;;;;;22.17;12.13;;;;;;;20.10;26.01;97974.78;4994826;28;20042;-64
2022/03/22 10:06:54;;;;;;;24.33;12.38;;;;;;;20.29;26.41;97977.13;4999781;28;20052;-64
2022/03/22 10:09:26;;;;;;;;;;;;;;;21.46;24.54;97979.06;4996074;28;20092;-65
2022/03/22 10:11:51;;;;;;;24.27;13.68;;;;;;;19.19;28.76;97987.75;5000244;28;19924;-64
2022/03/22 10:14:17;;;;;;;22.75;13.93;;;;;;;18.94;29.25;97975.78;4995299;28;20550;-66
2022/03/22 10:16:50;;;;;;;19.67;13.07;;;;;;;19.41;29.15;97977.53;4999082;28;20146;-65
2022/03/22 10:19:23;;;;;;;19.55;12.82;;;;;;;19.71;29.23;97979.13;4973802;28;20074;-65
2022/03/22 10:21:49;;;;;;;20.83;12.90;;;;;;;19.56;29.02;97972.75;4999038;28;20046;-64
2022/03/22 10:24:15;;;;;;;21.30;13.27;;;;;;;18.39;30.60;97980.28;5022981;23;20096;-67
2022/03/22 10:26:44;;;;;;;24.23;13.38;;;;;;;18.22;31.12;97978.19;5014965;28;20041;-65
2022/03/22 10:29:16;;;;;;;23.05;14.02;;;;;;;18.00;31.77;97980.00;5010654;28;20042;-66
2022/03/22 10:31:43;;;;;;;23.02;13.88;;;;;;;17.56;32.33;97978.84;5017811;28;20496;-66
2022/03/22 10:34:11;;;;;;;22.75;14.73;;;;;;;16.68;33.62;97974.69;4995650;28;20054;-68
2022/03/22 10:36:38;;;;;;;23.20;13.38;;;;;;;16.78;33.22;97979.56;4999702;28;20049;-68
2022/03/22 10:39:07;;;;;;;26.67;14.35;;;;;;;17.01;33.69;97965.63;4990584;28;20054;-66
2022/03/22 10:41:38;;;;;;;24.15;14.98;;;;;;;16.65;33.99;97973.47;5006947;28;20038;-67
2022/03/22 10:44:10;;;;;;;22.70;14.05;;;;;;;15.32;35.74;97973.38;5008783;28;20046;-66
2022/03/22 10:46:38;;;;;;;27.02;14.65;;;;;;;14.78;36.75;97967.63;5006078;28;20045;-68
2022/03/22 10:49:16;;;;;;;27.45;14.50;;;;;;;15.64;35.48;97963.69;4998349;28;20038;-66
2022/03/22 10:51:43;;;;;;;24.83;15.07;;;;;;;16.31;34.71;97956.03;4999334;28;20372;-68
2022/03/22 10:54:15;;;;;;;29.35;14.40;;;;;;;16.56;34.24;97961.91;4995351;28;20045;-66
2022/03/22 10:56:46;;;;;;;25.92;14.50;;;;;;;16.69;33.81;97963.25;4999318;28;20046;-68
2022/03/22 10:59:13;;;;;;;24.70;14.52;;;;;;;16.04;35.18;97961.56;4997335;28;20089;-66
2022/03/22 11:01:43;;;;;;;23.73;13.10;;;;;;;17.13;32.67;97957.06;5001461;28;20058;-66
2022/03/22 11:04:09;;;;;;;21.98;13.52;;;;;;;17.81;31.17;97965.22;4996285;28;20053;-67
2022/03/22 11:06:37;;;;;;;23.40;13.68;;;;;;;17.68;31.54;97955.56;5002608;28;20038;-67
2022/03/22 11:09:03;;;;;;;24.60;14.25;;;;;;;17.67;31.97;97952.03;4999925;28;20038;-67
2022/03/22 11:11:31;;;;;;;25.98;13.55;;;;;;;17.58;32.51;97946.00;4999930;28;20041;-67
2022/03/22 11:13:56;;;;;;;26.20;13.90;;;;;;;17.54;32.14;97953.50;5000792;28;20517;-67
2022/03/22 11:16:24;;;;;;;25.10;14.50;;;;;;;16.59;34.46;97955.63;4996194;28;20046;-66
2022/03/22 11:18:50;;;;;;;25.58;15.63;;;;;;;15.57;35.72;97952.53;4995683;28;20042;-65
2022/03/22 11:21:18;;;;;;;25.38;14.52;;;;;;;15.58;36.99;97948.59;4997819;28;20096;-67
2022/03/22 11:23:44;;;;;;;25.55;14.48;;;;;;;15.91;36.56;97943.63;5003923;28;20037;-66
2022/03/22 11:26:12;;;;;;;26.40;13.32;;;;;;;16.05;35.47;97943.84;4996945;28;20069;-67
2022/03/22 11:28:39;;;;;;;24.73;14.30;;;;;;;15.79;35.97;97939.91;5004326;28;20621;-67
2022/03/22 11:31:09;;;;;;;25.75;13.45;;;;;;;15.79;35.72;97933.56;4994425;28;20042;-67
2022/03/22 11:36:21;;;;;;;26.70;14.73;;;;;;;15.65;36.09;97931.38;4994741;28;20045;-68
2022/03/22 11:38:49;;;;;;;22.77;13.57;;;;;;;16.23;34.60;97927.50;4998118;28;20056;-66
2022/03/22 11:45:02;;;;;;;21.55;13.27;;;;;;;17.25;32.91;97925.56;4995607;28;20396;-67
2022/03/22 11:48:07;;;;;;;21.25;13.10;;;;;;;17.32;31.47;97922.03;4995356;28;20057;-67
2022/03/22 11:50:33;;;;;;;25.27;15.10;;;;;;;17.58;32.91;97921.88;5000001;28;20076;-66
2022/03/22 11:53:01;;;;;;;23.90;13.65;;;;;;;17.07;33.13;97922.59;5000874;28;20049;-66
2022/03/22 11:55:27;;;;;;;24.92;14.45;;;;;;;17.13;32.66;97921.06;4995078;28;20046;-66
2022/03/22 11:57:55;;;;;;;26.73;14.40;;;;;;;17.38;33.65;97910.22;4999499;28;20136;-66